Chilhowee, MO

8:32 AM CDT on April 19, 2015 (GMT -0500)
Whiteman Air Force Base | | Change Station
CLOSE
Current Station
Airport
Location: Whiteman AFB,
Elevation: 869 ft
Nearby Weather Stations

Elev 869 ft 38.73 °N, 93.55 °W | Updated 4 minutes ago

Mostly Cloudy
Mostly Cloudy
59 °F
Feels Like 59 °F
N
8
Wind Variable Wind from East

Today
High -- | Low -- °F
--% Chance of Precip.
Yesterday
High -- | Low -- °F
Precip. -- in
6:33 AM 7:55 PM
New Moon, 1% visible
Pressure 29.64 in
Visibility 0.2 miles
Clouds Overcast 100 ft
Dew Point 59 °F
Humidity 100%
Rainfall 0.01 in
Snow Depth Not available.
UV 1 out of 12
Pollen 6.40 out of 12
Air Quality Not available.
Flu Activity Local Activity
SPECI KSZL 191328Z AUTO 08007KT 1/4SM R19/2000FT FG OVC001 15/15 A2964 RMK AO2 $

More Conditions Fewer Conditions

Pressure 29.64 in
Visibility 0.2 miles
Clouds Overcast 100 ft
Dew Point 59 °F
Humidity 100%
Rainfall 0.01 in
Snow Depth Not available.
UV 1 out of 12
Pollen 6.40 out of 12
Air Quality Not available.
Flu Activity Local Activity
SPECI KSZL 191328Z AUTO 08007KT 1/4SM R19/2000FT FG OVC001 15/15 A2964 RMK AO2 $

More Conditions Fewer Conditions

10-Day Weather Forecast

Almanac

Astronomy

Apr. 19, 2015 Rise Set
Actual Time
Civil Twilight
Nautical Twilight
Astronomical Twilight
Moon
Length of Visible Light
Length of Day
Tomorrow will be .
, % of the Moon is Illuminated

Today's Extremes

State Highs State Lows

Community

WunderPhotos

Upload Photos

1,814,795 photos uploaded!

WunderBlogs® & News

Nearby

Air Quality

  Air Quality AQ Index Pollutant
Not available.

Snow Depth

Station Depth Elevation

Earthquake Activity

City Distance Mag. Time & Date
Minimum magnitude displayed is 2.5.

Coastal Water Temperatures

Place Temperature

Stations

Nearby Weather Stations

Station Location Temp. Windchill Dew Point Humidity Wind Precip. Elev Updated Type